Estación de Azapa medio

Ultimos registro cada 15 minutos 59
Estación Fecha / Hora Temperatura Humedad Lluvia Velocidad Dirección Radiación Presion
59 Azapa medio 04-05-2026 14:30 24,7 46,8 0 1,7 76 488 967
58 Azapa medio 04-05-2026 14:15 25 47 0 1,5 77 507 968
57 Azapa medio 04-05-2026 14:00 25 47,9 0 1,1 73 522 968
56 Azapa medio 04-05-2026 13:45 25,1 47,3 0 1,4 82 535 968
55 Azapa medio 04-05-2026 13:30 24,9 47,5 0 0,9 88 544 968
54 Azapa medio 04-05-2026 13:15 24,8 48,5 0 1,4 80 550 968
53 Azapa medio 04-05-2026 13:00 25 47,9 0 1,5 67 554 968
52 Azapa medio 04-05-2026 12:45 25,3 45,7 0 1 87 556 968
51 Azapa medio 04-05-2026 12:30 24,9 45,3 0 0,8 82 553 968
50 Azapa medio 04-05-2026 12:15 24,3 45,4 0 0,4 110 547 969
49 Azapa medio 04-05-2026 12:00 23,5 46,8 0 0,4 103 536 969
48 Azapa medio 04-05-2026 11:45 22,6 50,7 0 1 108 519 969
47 Azapa medio 04-05-2026 11:30 22,5 52 0 1 106 504 970
46 Azapa medio 04-05-2026 11:15 22,2 54,2 0 0,8 94 484 970
45 Azapa medio 04-05-2026 11:00 22 55,3 0 0,8 95 461 970
44 Azapa medio 04-05-2026 10:45 22 52,9 0 0,3 86 308 970
43 Azapa medio 04-05-2026 10:30 21,2 55,8 0 0,3 97 309 970
42 Azapa medio 04-05-2026 10:15 20,1 59,6 0 0,5 91 73 970
41 Azapa medio 04-05-2026 10:00 19,7 60,7 0 0,3 69 239 970
40 Azapa medio 04-05-2026 09:45 18,6 65,5 0 0,4 50 186 970
39 Azapa medio 04-05-2026 09:30 17,3 68,7 0 0,2 41 278 970
38 Azapa medio 04-05-2026 09:15 16,3 73,6 0 0,2 35 170 970
37 Azapa medio 04-05-2026 09:00 15,9 75,2 0 0,2 29 108 970
36 Azapa medio 04-05-2026 08:45 15,6 77,1 0 0,5 30 81 970
35 Azapa medio 04-05-2026 08:30 15,4 77,9 0 0,2 28 60 970
34 Azapa medio 04-05-2026 08:15 15,2 78,4 0 0 26 42 970
33 Azapa medio 04-05-2026 08:00 15 79,3 0 0,1 25 28 970
32 Azapa medio 04-05-2026 07:45 14,9 79,8 0 0 24 16 970
31 Azapa medio 04-05-2026 07:30 14,8 80,1 0 0,2 27 8 970
30 Azapa medio 04-05-2026 07:15 14,8 80,2 0 0,8 25 2 969
29 Azapa medio 04-05-2026 07:00 14,8 79,9 0 1 25 0 969
28 Azapa medio 04-05-2026 06:45 15 79,8 0 0,8 24 0 969
27 Azapa medio 04-05-2026 06:30 15,1 79,8 0 0,6 25 0 969
26 Azapa medio 04-05-2026 06:15 15,1 79,9 0 0,2 24 0 969
25 Azapa medio 04-05-2026 06:00 15,2 79,8 0 0,1 24 0 969
24 Azapa medio 04-05-2026 05:45 15,2 79,7 0 0,5 24 0 969
23 Azapa medio 04-05-2026 05:30 15,3 79,8 0 0,4 23 0 969
22 Azapa medio 04-05-2026 05:15 15,4 79,5 0 0,3 23 0 969
21 Azapa medio 04-05-2026 05:00 15,4 79,4 0 0 0 0 969
20 Azapa medio 04-05-2026 04:45 15,4 79,5 0 0 22 0 969
19 Azapa medio 04-05-2026 04:30 15,5 79,6 0 0 23 0 969
18 Azapa medio 04-05-2026 04:15 15,5 80 0 0 0 0 969
17 Azapa medio 04-05-2026 04:00 15,5 80 0 0 21 0 969
16 Azapa medio 04-05-2026 03:45 15,5 80 0 0 0 0 969
15 Azapa medio 04-05-2026 03:30 15,5 80,2 0 0 0 0 970
14 Azapa medio 04-05-2026 03:15 15,5 80,4 0 0,1 22 0 970
13 Azapa medio 04-05-2026 03:00 15,5 80,8 0 0 0 0 970
12 Azapa medio 04-05-2026 02:45 15,5 81,2 0 0 0 0 970
11 Azapa medio 04-05-2026 02:30 15,4 81,5 0 0 0 0 970
10 Azapa medio 04-05-2026 02:15 15,4 81,8 0 0 0 0 970
9 Azapa medio 04-05-2026 02:00 15,2 82,3 0 0 0 0 970
8 Azapa medio 04-05-2026 01:45 15,1 82,8 0 0 0 0 970
7 Azapa medio 04-05-2026 01:30 15,1 83,1 0 0 0 0 970
6 Azapa medio 04-05-2026 01:15 14,9 83,3 0 0 0 0 970
5 Azapa medio 04-05-2026 01:00 14,7 83,2 0 0 0 0 971
4 Azapa medio 04-05-2026 00:45 14,4 83,8 0 0 0 0 971
3 Azapa medio 04-05-2026 00:30 14,1 84,1 0 0,1 20 0 971
2 Azapa medio 04-05-2026 00:15 13,7 84,6 0 0 0 0 971
1 Azapa medio 04-05-2026 00:00 13,2 84,9 0 0 20 0 971